createdAt,value
2022-11-24T00:00:53.575Z,100093.75
2022-11-24T00:03:20.180Z,100092.66
2022-11-24T00:05:46.729Z,100091.03
2022-11-24T00:08:13.213Z,100092.34
2022-11-24T00:10:39.715Z,100092.81
2022-11-24T00:13:06.176Z,100093.94
2022-11-24T00:15:32.621Z,100091.06
2022-11-24T00:17:59.150Z,100098.69
2022-11-24T00:20:25.654Z,100092.34
2022-11-24T00:22:52.137Z,100098.56
2022-11-24T00:25:18.621Z,100107.13
2022-11-24T00:27:45.156Z,100101.41
2022-11-24T00:30:12.043Z,100100.00
2022-11-24T00:32:38.546Z,100100.63
2022-11-24T00:35:05.523Z,100100.94
2022-11-24T00:37:31.991Z,100095.34
2022-11-24T00:39:58.480Z,100089.94
2022-11-24T00:42:25.026Z,100096.00
2022-11-24T00:44:51.568Z,100101.41
2022-11-24T00:47:18.102Z,100097.28
2022-11-24T00:49:44.594Z,100109.53
2022-11-24T00:52:11.110Z,100107.94
2022-11-24T00:54:37.629Z,100107.94
2022-11-24T00:57:04.151Z,100100.63
2022-11-24T00:59:32.565Z,100104.75
2022-11-24T01:01:59.165Z,100111.28
2022-11-24T01:04:25.716Z,100121.31
2022-11-24T01:06:52.238Z,100124.84
2022-11-24T01:12:04.049Z,100125.13
2022-11-24T01:14:32.885Z,100125.78
2022-11-24T01:16:59.647Z,100122.28
2022-11-24T01:19:26.236Z,100120.50
2022-11-24T01:21:53.708Z,100119.41
2022-11-24T01:24:20.216Z,100124.69
2022-11-24T01:26:46.729Z,100113.84
2022-11-24T01:29:13.286Z,100118.00
2022-11-24T01:31:40.094Z,100124.03
2022-11-24T01:34:06.760Z,100127.06
2022-11-24T01:36:33.696Z,100128.97
2022-11-24T01:39:00.206Z,100128.66
2022-11-24T01:41:27.119Z,100125.63
2022-11-24T01:43:54.956Z,100129.47
2022-11-24T01:46:28.746Z,100126.41
2022-11-24T01:49:03.461Z,100125.63
2022-11-24T01:51:34.562Z,100125.31
2022-11-24T01:54:07.797Z,100120.34
2022-11-24T01:56:36.665Z,100126.91
2022-11-24T01:59:07.622Z,100135.03
2022-11-24T02:01:34.623Z,100133.44
2022-11-24T02:04:04.108Z,100134.53
2022-11-24T02:06:33.114Z,100134.53
2022-11-24T02:09:16.896Z,100136.28
2022-11-24T02:11:44.600Z,100135.03
2022-11-24T02:14:15.680Z,100131.50
2022-11-24T02:16:48.192Z,100127.38
2022-11-24T02:19:28.416Z,100137.88
2022-11-24T02:21:55.212Z,100137.38
2022-11-24T02:24:24.393Z,100136.63
2022-11-24T02:26:52.405Z,100132.47
2022-11-24T02:29:20.606Z,100134.22
2022-11-24T02:32:03.914Z,100138.84
2022-11-24T02:34:30.426Z,100137.25
2022-11-24T02:36:56.963Z,100138.38
2022-11-24T02:39:24.018Z,100151.75
2022-11-24T02:41:54.540Z,100144.59
2022-11-24T02:44:24.716Z,100149.38
2022-11-24T02:47:02.178Z,100168.31
2022-11-24T02:49:28.663Z,100175.00
2022-11-24T02:51:55.156Z,100171.47
2022-11-24T02:54:22.443Z,100167.03
2022-11-24T02:56:48.945Z,100167.84
2022-11-24T02:59:15.412Z,100168.97
2022-11-24T03:01:41.965Z,100165.13
2022-11-24T03:04:08.479Z,100159.38
2022-11-24T03:06:35.023Z,100159.25
2022-11-24T03:09:01.581Z,100157.16
2022-11-24T03:11:28.071Z,100156.69
2022-11-24T03:13:54.576Z,100157.16
2022-11-24T03:16:21.247Z,100154.78
2022-11-24T03:18:48.278Z,100157.63
2022-11-24T03:21:14.783Z,100153.81
2022-11-24T03:23:42.117Z,100155.72
2022-11-24T03:26:09.680Z,100152.22
2022-11-24T03:28:36.431Z,100158.78
2022-11-24T03:31:03.059Z,100164.50
2022-11-24T03:33:29.848Z,100168.47
2022-11-24T03:35:56.596Z,100176.44
2022-11-24T03:38:23.432Z,100168.94
2022-11-24T03:40:49.998Z,100176.13
2022-11-24T03:43:16.480Z,100177.56
2022-11-24T03:45:47.355Z,100170.41
2022-11-24T03:48:15.002Z,100173.28
2022-11-24T03:50:41.485Z,100169.28
2022-11-24T03:53:08.399Z,100161.16
2022-11-24T03:55:34.913Z,100154.44
2022-11-24T03:58:01.834Z,100160.03
2022-11-24T04:00:28.437Z,100160.69
2022-11-24T04:02:55.009Z,100156.06
2022-11-24T04:05:21.618Z,100156.06
2022-11-24T04:07:48.131Z,100162.91
2022-11-24T04:10:14.654Z,100171.50
2022-11-24T04:12:43.978Z,100176.47
2022-11-24T04:15:19.034Z,100167.69
2022-11-24T04:17:47.104Z,100171.50
2022-11-24T04:20:14.102Z,100177.09
2022-11-24T04:22:40.693Z,100173.91
2022-11-24T04:25:08.308Z,100185.22
2022-11-24T04:27:36.593Z,100195.06
2022-11-24T04:30:04.869Z,100189.84
2022-11-24T04:32:31.400Z,100198.41
2022-11-24T04:34:58.279Z,100201.78
2022-11-24T04:37:24.822Z,100195.06
2022-11-24T04:39:51.261Z,100204.50
2022-11-24T04:42:17.715Z,100201.16
2022-11-24T04:44:44.182Z,100208.94
2022-11-24T04:47:16.856Z,100212.00
2022-11-24T04:49:43.334Z,100217.06
2022-11-24T04:52:09.824Z,100222.97
2022-11-24T04:54:36.956Z,100224.53
2022-11-24T04:57:03.436Z,100224.25
2022-11-24T04:59:30.066Z,100230.94
2022-11-24T05:01:56.555Z,100239.72
2022-11-24T05:04:23.492Z,100246.22
2022-11-24T05:06:50.317Z,100241.94
2022-11-24T05:09:17.608Z,100248.91
2022-11-24T05:11:44.229Z,100256.75
2022-11-24T05:14:10.737Z,100252.25
2022-11-24T05:16:37.736Z,100259.28
2022-11-24T05:19:04.340Z,100259.16
2022-11-24T05:21:30.758Z,100264.09
2022-11-24T05:23:57.177Z,100262.97
2022-11-24T05:26:23.590Z,100262.31
2022-11-24T05:28:50.013Z,100256.44
2022-11-24T05:31:16.464Z,100262.19
2022-11-24T05:33:43.228Z,100258.84
2022-11-24T05:36:29.974Z,100263.13
2022-11-24T05:38:56.472Z,100253.75
2022-11-24T05:41:22.861Z,100258.66
2022-11-24T05:43:49.279Z,100272.84
2022-11-24T05:46:15.772Z,100264.41
2022-11-24T05:48:42.183Z,100267.88
2022-11-24T05:51:09.515Z,100262.47
2022-11-24T05:53:36.098Z,100272.53
2022-11-24T05:56:04.153Z,100271.56
2022-11-24T05:58:30.668Z,100275.72
2022-11-24T06:00:57.129Z,100278.25
2022-11-24T06:03:23.854Z,100279.53
2022-11-24T06:05:50.304Z,100279.84
2022-11-24T06:08:16.727Z,100283.34
2022-11-24T06:10:43.146Z,100280.47
2022-11-24T06:13:09.594Z,100286.53
2022-11-24T06:15:37.589Z,100284.31
2022-11-24T06:18:04.179Z,100282.53
2022-11-24T06:20:32.934Z,100284.44
2022-11-24T06:23:00.955Z,100289.72
2022-11-24T06:25:28.475Z,100290.03
2022-11-24T06:27:55.058Z,100301.31
2022-11-24T06:30:21.459Z,100291.66
2022-11-24T06:32:49.957Z,100296.41
2022-11-24T06:35:17.102Z,100297.22
2022-11-24T06:37:43.574Z,100293.38
2022-11-24T06:40:10.511Z,100296.22
2022-11-24T06:42:37.664Z,100298.63
2022-11-24T06:45:08.713Z,100302.63
2022-11-24T06:47:35.652Z,100305.50
2022-11-24T06:50:02.161Z,100311.84
2022-11-24T06:52:28.655Z,100312.50
2022-11-24T06:54:55.105Z,100314.41
2022-11-24T06:57:21.629Z,100316.00
2022-11-24T06:59:48.044Z,100323.16
2022-11-24T07:02:14.441Z,100323.97
2022-11-24T07:04:41.282Z,100321.13
2022-11-24T07:07:07.727Z,100332.59
2022-11-24T07:09:34.183Z,100335.59
2022-11-24T07:12:02.192Z,100342.00
2022-11-24T07:14:28.562Z,100344.88
2022-11-24T07:17:16.424Z,100331.66
2022-11-24T07:19:42.821Z,100330.34
2022-11-24T07:22:09.204Z,100338.69
2022-11-24T07:24:35.825Z,100338.34
2022-11-24T07:27:02.463Z,100355.72
2022-11-24T07:29:28.914Z,100354.28
2022-11-24T07:31:55.374Z,100355.91
2022-11-24T07:34:21.940Z,100357.97
2022-11-24T07:36:48.340Z,100378.03
2022-11-24T07:39:14.836Z,100375.81
2022-11-24T07:41:41.195Z,100380.59
2022-11-24T07:44:07.727Z,100377.41
2022-11-24T07:46:34.191Z,100386.16
2022-11-24T07:49:00.585Z,100385.53
2022-11-24T07:51:27.006Z,100381.41
2022-11-24T07:53:53.426Z,100380.28
2022-11-24T07:56:19.884Z,100382.56
2022-11-24T07:58:52.504Z,100382.69
2022-11-24T08:01:20.230Z,100379.34
2022-11-24T08:03:47.135Z,100387.34
2022-11-24T08:06:38.675Z,100392.94
2022-11-24T08:09:01.217Z,100392.13
2022-11-24T08:11:27.988Z,100386.25
2022-11-24T08:13:54.360Z,100389.28
2022-11-24T08:16:21.011Z,100403.94
2022-11-24T08:18:52.577Z,100416.22
2022-11-24T08:21:19.610Z,100417.00
2022-11-24T08:23:46.256Z,100425.13
2022-11-24T08:26:17.474Z,100429.94
2022-11-24T08:28:45.625Z,100429.47
2022-11-24T08:31:14.658Z,100418.31
2022-11-24T08:33:41.460Z,100413.72
2022-11-24T08:36:10.317Z,100423.28
2022-11-24T08:38:36.915Z,100416.47
2022-11-24T08:41:06.652Z,100419.81
2022-11-24T08:43:33.440Z,100418.69
2022-11-24T08:46:01.908Z,100431.41
2022-11-24T08:48:29.421Z,100427.44
2022-11-24T08:50:57.444Z,100428.72
2022-11-24T08:53:24.488Z,100426.19
2022-11-24T08:55:51.102Z,100435.91
2022-11-24T08:58:17.661Z,100435.63
2022-11-24T09:00:44.300Z,100431.47
2022-11-24T09:03:11.881Z,100433.69
2022-11-24T09:05:53.952Z,100436.44
2022-11-24T09:08:20.660Z,100430.34
2022-11-24T09:10:47.255Z,100434.22
2022-11-24T09:13:13.820Z,100434.53
2022-11-24T09:15:40.225Z,100425.59
2022-11-24T09:18:06.694Z,100424.78
2022-11-24T09:20:33.064Z,100426.22
2022-11-24T09:22:59.466Z,100440.75
2022-11-24T09:25:25.907Z,100431.34
2022-11-24T09:27:52.373Z,100430.88
2022-11-24T09:30:18.903Z,100435.69
2022-11-24T09:32:45.354Z,100437.28
2022-11-24T09:35:11.745Z,100439.53
2022-11-24T09:37:38.434Z,100444.63
2022-11-24T09:40:05.427Z,100441.91
2022-11-24T09:42:46.911Z,100448.00
2022-11-24T09:45:30.356Z,100452.47
2022-11-24T09:48:14.200Z,100448.47
2022-11-24T09:50:41.513Z,100451.50
2022-11-24T09:53:31.786Z,100448.47
2022-11-24T09:56:28.800Z,100448.66
2022-11-24T09:59:07.127Z,100451.06
2022-11-24T10:01:36.974Z,100454.25
2022-11-24T10:04:06.729Z,100460.28
2022-11-24T10:06:44.957Z,100465.09
2022-11-24T10:09:29.641Z,100467.03
2022-11-24T10:12:17.648Z,100465.41
2022-11-24T10:15:24.453Z,100470.19
2022-11-24T10:18:14.910Z,100475.81
2022-11-24T10:20:49.477Z,100473.25
2022-11-24T10:23:40.846Z,100478.03
2022-11-24T10:26:26.481Z,100484.59
2022-11-24T10:28:56.488Z,100490.50
2022-11-24T10:31:24.923Z,100485.72
2022-11-24T10:33:51.472Z,100488.91
2022-11-24T10:36:32.131Z,100490.69
2022-11-24T10:39:15.543Z,100491.81
2022-11-24T10:42:07.480Z,100499.00
2022-11-24T10:44:33.913Z,100517.06
2022-11-24T10:47:00.295Z,100510.03
2022-11-24T10:49:32.586Z,100507.47
2022-11-24T10:52:12.984Z,100504.75
2022-11-24T10:55:01.820Z,100500.91
2022-11-24T10:57:29.562Z,100502.19
2022-11-24T10:59:56.720Z,100498.22
2022-11-24T11:02:30.805Z,100492.97
2022-11-24T11:04:57.613Z,100492.31
2022-11-24T11:07:26.509Z,100499.34
2022-11-24T11:10:23.208Z,100497.44
2022-11-24T11:12:49.679Z,100490.53
2022-11-24T11:15:23.006Z,100500.31
2022-11-24T11:17:52.483Z,100500.13
2022-11-24T11:20:25.034Z,100506.22
2022-11-24T11:22:51.606Z,100507.16
2022-11-24T11:25:25.582Z,100512.75
2022-11-24T11:28:18.404Z,100511.16
2022-11-24T11:31:16.343Z,100497.91
2022-11-24T11:34:05.546Z,100502.69
2022-11-24T11:36:43.526Z,100503.31
2022-11-24T11:39:19.244Z,100499.50
2022-11-24T11:41:50.102Z,100503.16
2022-11-24T11:44:48.938Z,100507.16
2022-11-24T11:47:22.530Z,100503.16
2022-11-24T11:49:49.687Z,100505.22
2022-11-24T11:52:28.186Z,100513.22
2022-11-24T11:55:13.670Z,100505.72
2022-11-24T11:58:05.102Z,100513.06
2022-11-24T12:00:37.139Z,100512.28
2022-11-24T12:03:30.924Z,100514.50
2022-11-24T12:06:03.537Z,100522.19
2022-11-24T12:09:19.213Z,100516.25
2022-11-24T12:11:57.315Z,100531.28
2022-11-24T12:14:45.286Z,100526.50
2022-11-24T12:17:44.946Z,100525.69
2022-11-24T12:20:33.059Z,100524.09
2022-11-24T12:23:14.742Z,100521.53
2022-11-24T12:25:47.609Z,100515.78
2022-11-24T12:28:29.905Z,100522.16
2022-11-24T12:31:06.906Z,100513.06
2022-11-24T12:33:47.561Z,100507.78
2022-11-24T12:36:45.628Z,100513.38
2022-11-24T12:39:21.394Z,100513.22
2022-11-24T12:41:50.692Z,100522.47
2022-11-24T12:44:46.188Z,100532.25
2022-11-24T12:47:37.349Z,100528.41
2022-11-24T12:50:18.138Z,100524.09
2022-11-24T12:52:55.564Z,100534.66
2022-11-24T12:55:25.710Z,100528.72
2022-11-24T12:58:25.830Z,100526.50
2022-11-24T13:01:11.570Z,100529.69
2022-11-24T13:04:03.158Z,100532.22
2022-11-24T13:06:49.101Z,100532.69
2022-11-24T13:09:16.229Z,100538.13
2022-11-24T13:11:45.147Z,100533.03
2022-11-24T13:14:45.979Z,100547.88
2022-11-24T13:17:52.442Z,100554.25
2022-11-24T13:20:23.977Z,100551.41
2022-11-24T13:22:56.702Z,100558.13
2022-11-24T13:25:31.079Z,100554.28
2022-11-24T13:28:02.496Z,100558.13
2022-11-24T13:30:34.979Z,100556.03
2022-11-24T13:33:16.841Z,100560.69
2022-11-24T13:36:02.028Z,100560.38
2022-11-24T13:38:50.792Z,100568.34
2022-11-24T13:41:35.466Z,100561.31
2022-11-24T13:44:14.671Z,100567.72
2022-11-24T13:47:01.769Z,100575.22
2022-11-24T13:49:43.342Z,100576.31
2022-11-24T13:52:35.933Z,100579.84
2022-11-24T13:55:13.461Z,100581.91
2022-11-24T13:57:42.975Z,100576.34
2022-11-24T14:00:18.474Z,100579.06
2022-11-24T14:02:45.591Z,100582.44
2022-11-24T14:05:17.040Z,100583.38
2022-11-24T14:07:49.490Z,100580.81
2022-11-24T14:10:27.381Z,100581.63
2022-11-24T14:13:16.729Z,100586.75
2022-11-24T14:15:44.308Z,100598.75
2022-11-24T14:18:21.524Z,100603.38
2022-11-24T14:20:48.152Z,100611.66
2022-11-24T14:23:14.609Z,100599.69
2022-11-24T14:25:48.116Z,100610.25
2022-11-24T14:28:26.476Z,100610.06
2022-11-24T14:31:09.810Z,100611.69
2022-11-24T14:33:36.629Z,100609.75
2022-11-24T14:36:03.273Z,100609.75
2022-11-24T14:38:29.756Z,100614.88
2022-11-24T14:40:56.549Z,100617.13
2022-11-24T14:43:25.676Z,100621.59
2022-11-24T14:45:59.436Z,100629.25
2022-11-24T14:48:31.553Z,100630.22
2022-11-24T14:51:25.675Z,100631.03
2022-11-24T14:53:56.285Z,100630.56
2022-11-24T14:56:25.395Z,100626.25
2022-11-24T14:58:52.893Z,100639.97
2022-11-24T15:01:22.227Z,100633.44
2022-11-24T15:04:46.248Z,100631.38
2022-11-24T15:07:25.907Z,100638.38
2022-11-24T15:10:00.779Z,100634.09
2022-11-24T15:12:42.442Z,100634.53
2022-11-24T15:15:14.793Z,100632.63
2022-11-24T15:17:58.920Z,100646.69
2022-11-24T15:20:30.599Z,100648.44
2022-11-24T15:23:15.527Z,100653.25
2022-11-24T15:25:42.396Z,100652.47
2022-11-24T15:28:09.170Z,100660.63
2022-11-24T15:30:36.910Z,100650.53
2022-11-24T15:33:11.423Z,100654.69
2022-11-24T15:35:37.902Z,100662.38
2022-11-24T15:38:04.337Z,100665.09
2022-11-24T15:40:31.138Z,100670.69
2022-11-24T15:43:00.763Z,100670.03
2022-11-24T15:45:29.861Z,100674.84
2022-11-24T15:47:57.744Z,100672.59
2022-11-24T15:50:24.241Z,100672.28
2022-11-24T15:52:51.144Z,100671.81
2022-11-24T15:55:21.815Z,100677.56
2022-11-24T15:57:48.873Z,100670.19
2022-11-24T16:00:21.163Z,100670.19
2022-11-24T16:02:47.811Z,100672.13
2022-11-24T16:05:15.678Z,100664.91
2022-11-24T16:07:42.709Z,100666.19
2022-11-24T16:10:25.910Z,100678.84
2022-11-24T16:12:52.453Z,100674.81
2022-11-24T16:15:19.196Z,100677.84
2022-11-24T16:17:46.380Z,100679.44
2022-11-24T16:20:12.970Z,100679.75
2022-11-24T16:22:39.867Z,100684.75
2022-11-24T16:25:07.368Z,100690.34
2022-11-24T16:27:33.977Z,100693.34
2022-11-24T16:30:01.967Z,100696.69
2022-11-24T16:32:28.592Z,100697.63
2022-11-24T16:34:55.104Z,100701.97
2022-11-24T16:37:21.754Z,100701.69
2022-11-24T16:39:50.347Z,100697.34
2022-11-24T16:42:17.178Z,100704.63
2022-11-24T16:44:43.760Z,100700.50
2022-11-24T16:47:12.521Z,100702.44
2022-11-24T16:49:40.259Z,100704.78
2022-11-24T16:52:08.404Z,100708.59
2022-11-24T16:54:35.042Z,100703.38
2022-11-24T16:57:01.574Z,100707.41
2022-11-24T16:59:27.977Z,100712.47
2022-11-24T17:01:54.589Z,100714.75
2022-11-24T17:04:21.164Z,100723.50
2022-11-24T17:06:47.554Z,100719.00
2022-11-24T17:09:14.093Z,100720.19
2022-11-24T17:11:41.248Z,100719.19
2022-11-24T17:14:12.260Z,100725.88
2022-11-24T17:16:38.983Z,100719.50
2022-11-24T17:19:05.902Z,100722.09
2022-11-24T17:21:32.909Z,100714.38
2022-11-24T17:24:01.289Z,100716.50
2022-11-24T17:26:28.624Z,100717.91
2022-11-24T17:28:55.971Z,100727.56
2022-11-24T17:31:28.680Z,100728.03
2022-11-24T17:33:57.610Z,100721.31
2022-11-24T17:36:24.387Z,100731.00
2022-11-24T17:38:51.103Z,100727.38
2022-11-24T17:41:18.641Z,100731.81
2022-11-24T17:43:50.117Z,100731.22
2022-11-24T17:46:17.000Z,100725.16
2022-11-24T17:48:43.638Z,100733.97
2022-11-24T17:51:15.410Z,100735.25
2022-11-24T17:53:43.651Z,100740.03
2022-11-24T17:56:15.631Z,100740.00
2022-11-24T17:58:43.315Z,100743.66
2022-11-24T18:01:11.711Z,100741.00
2022-11-24T18:03:39.530Z,100743.53
2022-11-24T18:06:07.018Z,100747.69
2022-11-24T18:08:34.366Z,100742.44
2022-11-24T18:11:05.292Z,100744.13
2022-11-24T18:13:54.937Z,100751.38
2022-11-24T18:16:19.055Z,100748.78
2022-11-24T18:18:50.075Z,100748.66
2022-11-24T18:21:17.747Z,100746.53
2022-11-24T18:23:47.450Z,100750.34
2022-11-24T18:26:15.610Z,100746.53
2022-11-24T18:28:43.841Z,100749.25
2022-11-24T18:31:13.283Z,100748.00
2022-11-24T18:33:41.468Z,100738.06
2022-11-24T18:36:10.368Z,100742.81
2022-11-24T18:38:37.320Z,100739.47
2022-11-24T18:41:04.754Z,100745.03
2022-11-24T18:43:31.358Z,100750.78
2022-11-24T18:45:58.138Z,100746.63
2022-11-24T18:48:26.321Z,100749.50
2022-11-24T18:50:54.544Z,100743.25
2022-11-24T18:53:22.947Z,100750.41
2022-11-24T18:55:56.259Z,100753.66
2022-11-24T18:58:23.518Z,100758.75
2022-11-24T19:00:50.051Z,100754.56
2022-11-24T19:03:16.592Z,100752.44
2022-11-24T19:05:43.187Z,100744.69
2022-11-24T19:08:09.630Z,100741.59
2022-11-24T19:10:37.381Z,100744.31
2022-11-24T19:13:04.084Z,100759.03
2022-11-24T19:15:34.585Z,100755.31
2022-11-24T19:18:01.666Z,100762.84
2022-11-24T19:20:28.708Z,100765.56
2022-11-24T19:22:55.150Z,100770.19
2022-11-24T19:25:21.583Z,100770.03
2022-11-24T19:27:48.033Z,100776.22
2022-11-24T19:30:16.417Z,100792.97
2022-11-24T19:32:42.872Z,100783.47
2022-11-24T19:35:09.657Z,100789.41
2022-11-24T19:37:36.920Z,100796.13
2022-11-24T19:40:04.501Z,100801.84
2022-11-24T19:42:30.957Z,100811.19
2022-11-24T19:44:57.369Z,100808.06
2022-11-24T19:47:23.785Z,100813.41
2022-11-24T19:49:50.352Z,100815.22
2022-11-24T19:52:17.467Z,100820.63
2022-11-24T19:54:44.138Z,100819.00
2022-11-24T19:57:10.629Z,100824.41
2022-11-24T19:59:37.897Z,100822.66
2022-11-24T20:02:04.377Z,100837.75
2022-11-24T20:04:32.950Z,100839.47
2022-11-24T20:07:00.190Z,100843.06
2022-11-24T20:09:26.628Z,100843.69
2022-11-24T20:11:53.048Z,100845.41
2022-11-24T20:14:20.038Z,100847.28
2022-11-24T20:16:47.669Z,100848.44
2022-11-24T20:19:15.977Z,100857.25
2022-11-24T20:21:46.244Z,100856.44
2022-11-24T20:24:15.919Z,100854.53
2022-11-24T20:26:46.955Z,100859.44
2022-11-24T20:29:14.623Z,100863.47
2022-11-24T20:31:44.452Z,100853.94
2022-11-24T20:34:12.117Z,100853.25
2022-11-24T20:36:41.135Z,100866.69
2022-11-24T20:39:14.808Z,100873.28
2022-11-24T20:41:41.604Z,100871.25
2022-11-24T20:44:15.085Z,100867.72
2022-11-24T20:46:43.181Z,100861.41
2022-11-24T20:49:13.747Z,100872.66
2022-11-24T20:51:43.798Z,100868.00
2022-11-24T20:54:12.840Z,100870.09
2022-11-24T20:56:41.596Z,100863.06
2022-11-24T20:59:12.042Z,100859.78
2022-11-24T21:04:11.735Z,100856.91
2022-11-24T21:06:38.220Z,100855.06
2022-11-24T21:09:06.573Z,100854.56
2022-11-24T21:11:33.681Z,100862.63
2022-11-24T21:14:00.753Z,100866.84
2022-11-24T21:16:31.779Z,100873.56
2022-11-24T21:19:00.687Z,100875.72
2022-11-24T21:21:34.406Z,100882.09
2022-11-24T21:24:06.756Z,100875.81
2022-11-24T21:26:38.200Z,100878.66
2022-11-24T21:29:06.586Z,100880.06
2022-11-24T21:31:37.689Z,100870.28
2022-11-24T21:34:05.383Z,100873.72
2022-11-24T21:36:35.277Z,100874.44
2022-11-24T21:39:03.657Z,100878.94
2022-11-24T21:41:32.802Z,100873.94
2022-11-24T21:43:59.310Z,100874.03
2022-11-24T21:46:25.725Z,100877.78
2022-11-24T21:48:52.162Z,100869.19
2022-11-24T21:51:20.617Z,100885.31
2022-11-24T21:53:47.853Z,100881.38
2022-11-24T21:56:17.345Z,100876.75
2022-11-24T21:58:45.559Z,100878.44
2022-11-24T22:01:12.126Z,100883.09
2022-11-24T22:03:38.621Z,100881.28
2022-11-24T22:06:05.299Z,100889.09
2022-11-24T22:08:31.976Z,100893.53
2022-11-24T22:11:06.377Z,100893.16
2022-11-24T22:13:33.168Z,100891.19
2022-11-24T22:16:02.954Z,100883.47
2022-11-24T22:18:31.736Z,100891.94
2022-11-24T22:20:58.162Z,100892.94
2022-11-24T22:23:24.807Z,100886.50
2022-11-24T22:25:51.186Z,100888.41
2022-11-24T22:28:17.681Z,100897.66
2022-11-24T22:30:44.062Z,100888.81
2022-11-24T22:33:10.439Z,100893.25
2022-11-24T22:35:36.896Z,100896.13
2022-11-24T22:38:03.253Z,100897.56
2022-11-24T22:40:29.629Z,100898.56
2022-11-24T22:42:57.810Z,100904.00
2022-11-24T22:45:24.264Z,100899.66
2022-11-24T22:47:54.669Z,100898.19
2022-11-24T22:50:21.115Z,100898.72
2022-11-24T22:52:49.826Z,100902.03
2022-11-24T22:55:16.398Z,100908.53
2022-11-24T22:57:47.403Z,100900.16
2022-11-24T23:00:16.234Z,100904.13
2022-11-24T23:02:42.844Z,100908.22
2022-11-24T23:05:09.352Z,100906.31
2022-11-24T23:07:36.003Z,100915.63
2022-11-24T23:10:02.691Z,100912.53
2022-11-24T23:12:29.113Z,100905.25
2022-11-24T23:14:55.506Z,100900.13
2022-11-24T23:17:21.954Z,100897.94
2022-11-24T23:19:48.342Z,100918.66
2022-11-24T23:22:14.744Z,100908.47
2022-11-24T23:24:41.173Z,100909.88
2022-11-24T23:27:07.568Z,100902.13
2022-11-24T23:29:33.955Z,100897.94
2022-11-24T23:32:00.480Z,100899.13
2022-11-24T23:34:26.931Z,100897.84
2022-11-24T23:36:53.324Z,100901.84
2022-11-24T23:39:19.791Z,100894.03
2022-11-24T23:41:46.153Z,100899.13
2022-11-24T23:44:12.650Z,100901.06
2022-11-24T23:46:39.116Z,100911.50
2022-11-24T23:49:05.651Z,100905.75
2022-11-24T23:51:33.358Z,100902.25
2022-11-24T23:54:00.262Z,100899.72
2022-11-24T23:56:29.171Z,100905.38
2022-11-24T23:58:55.676Z,100902.56
